createdAt,value
2023-05-01T00:00:08.125Z,3.34
2023-05-01T00:02:35.184Z,3.63
2023-05-01T00:05:02.282Z,6.79
2023-05-01T00:07:30.529Z,5.41
2023-05-01T00:09:57.877Z,4.62
2023-05-01T00:12:25.530Z,3.39
2023-05-01T00:14:53.511Z,2.56
2023-05-01T00:17:20.320Z,2.89
2023-05-01T00:19:47.143Z,2.77
2023-05-01T00:22:13.872Z,2.69
2023-05-01T00:24:42.000Z,2.87
2023-05-01T00:27:08.744Z,2.77
2023-05-01T00:29:35.499Z,3.28
2023-05-01T00:32:02.342Z,3.23
2023-05-01T00:34:29.095Z,2.78
2023-05-01T00:36:55.818Z,3.49
2023-05-01T00:39:22.593Z,3.50
2023-05-01T00:41:50.781Z,3.77
2023-05-01T00:44:17.698Z,3.81
2023-05-01T00:46:44.494Z,4.13
2023-05-01T00:49:11.259Z,4.35
2023-05-01T00:51:38.115Z,5.08
2023-05-01T00:54:05.786Z,4.58
2023-05-01T00:56:32.840Z,4.51
2023-05-01T00:59:01.272Z,3.68
2023-05-01T01:01:28.482Z,4.35
2023-05-01T01:03:55.358Z,3.90
2023-05-01T01:06:33.326Z,4.80
2023-05-01T01:09:09.048Z,3.93
2023-05-01T01:11:42.997Z,4.49
2023-05-01T01:14:17.366Z,5.99
2023-05-01T01:16:48.963Z,5.38
2023-05-01T01:19:52.169Z,4.80
2023-05-01T01:22:23.040Z,4.62
2023-05-01T01:25:13.960Z,4.28
2023-05-01T01:28:04.896Z,4.68
2023-05-01T01:31:05.027Z,3.78
2023-05-01T01:33:58.151Z,4.19
2023-05-01T01:36:34.536Z,4.76
2023-05-01T01:39:08.836Z,4.54
2023-05-01T01:41:38.999Z,4.88
2023-05-01T01:44:12.187Z,5.50
2023-05-01T01:46:41.578Z,4.50
2023-05-01T01:49:15.743Z,4.14
2023-05-01T01:51:43.727Z,3.92
2023-05-01T01:54:13.571Z,4.66
2023-05-01T01:56:42.404Z,5.49
2023-05-01T01:59:13.098Z,4.50
2023-05-01T02:01:41.664Z,4.77
2023-05-01T02:04:12.295Z,4.43
2023-05-01T02:06:40.750Z,4.27
2023-05-01T02:09:09.688Z,4.67
2023-05-01T02:11:37.900Z,4.03
2023-05-01T02:14:07.253Z,4.59
2023-05-01T02:16:35.289Z,4.84
2023-05-01T02:19:04.022Z,5.09
2023-05-01T02:21:33.965Z,5.90
2023-05-01T02:24:01.625Z,5.65
2023-05-01T02:26:29.757Z,4.71
2023-05-01T02:28:56.502Z,4.73
2023-05-01T02:31:23.401Z,3.82
2023-05-01T02:33:50.314Z,4.40
2023-05-01T02:36:17.130Z,4.16
2023-05-01T02:38:45.311Z,4.56
2023-05-01T02:41:15.135Z,4.58
2023-05-01T02:43:43.560Z,4.26
2023-05-01T02:46:12.656Z,3.78
2023-05-01T02:48:42.124Z,3.81
2023-05-01T02:51:09.829Z,3.64
2023-05-01T02:53:36.954Z,5.33
2023-05-01T02:56:05.702Z,5.30
2023-05-01T02:58:33.977Z,4.19
2023-05-01T03:01:00.773Z,4.19
2023-05-01T03:03:27.574Z,3.94
2023-05-01T03:05:54.454Z,4.65
2023-05-01T03:08:21.268Z,4.37
2023-05-01T03:10:47.986Z,4.41
2023-05-01T03:13:16.105Z,3.62
2023-05-01T03:15:42.828Z,4.09
2023-05-01T03:18:09.809Z,3.90
2023-05-01T03:20:36.692Z,3.54
2023-05-01T03:23:03.465Z,3.57
2023-05-01T03:25:30.296Z,3.18
2023-05-01T03:27:57.144Z,3.72
2023-05-01T03:30:25.369Z,3.33
2023-05-01T03:32:52.425Z,3.78
2023-05-01T03:35:19.459Z,3.59
2023-05-01T03:37:46.409Z,3.22
2023-05-01T03:40:13.540Z,2.97
2023-05-01T03:42:40.302Z,3.33
2023-05-01T03:45:08.216Z,3.71
2023-05-01T03:47:36.572Z,3.50
2023-05-01T03:50:03.689Z,3.59
2023-05-01T03:52:30.468Z,3.71
2023-05-01T03:54:57.455Z,3.91
2023-05-01T03:57:24.268Z,3.71
2023-05-01T03:59:51.081Z,3.86
2023-05-01T04:02:17.990Z,4.46
2023-05-01T04:04:46.227Z,4.19
2023-05-01T04:07:13.605Z,5.90
2023-05-01T04:09:40.374Z,5.40
2023-05-01T04:12:07.187Z,5.06
2023-05-01T04:14:33.910Z,5.62
2023-05-01T04:17:00.759Z,4.75
2023-05-01T04:19:27.548Z,4.45
2023-05-01T04:21:55.704Z,4.57
2023-05-01T04:24:22.507Z,4.14
2023-05-01T04:26:49.344Z,4.01
2023-05-01T04:29:16.163Z,3.81
2023-05-01T04:31:43.047Z,4.28
2023-05-01T04:34:09.883Z,3.74
2023-05-01T04:36:36.739Z,3.84
2023-05-01T04:39:04.866Z,3.87
2023-05-01T04:41:31.605Z,3.89
2023-05-01T04:43:58.412Z,4.08
2023-05-01T04:46:25.306Z,4.12
2023-05-01T04:48:52.141Z,4.74
2023-05-01T04:51:18.921Z,4.27
2023-05-01T04:53:45.819Z,3.49
2023-05-01T04:56:13.947Z,5.06
2023-05-01T04:58:40.708Z,4.38
2023-05-01T05:01:07.589Z,3.67
2023-05-01T05:03:34.433Z,3.52
2023-05-01T05:06:01.308Z,3.49
2023-05-01T05:08:28.149Z,6.43
2023-05-01T05:10:58.428Z,5.44
2023-05-01T05:13:27.161Z,5.05
2023-05-01T05:15:54.143Z,3.94
2023-05-01T05:18:21.151Z,3.40
2023-05-01T05:20:48.225Z,3.73
2023-05-01T05:23:15.030Z,3.86
2023-05-01T05:25:41.847Z,4.44
2023-05-01T05:28:08.707Z,4.23
2023-05-01T05:30:36.964Z,5.46
2023-05-01T05:33:04.131Z,4.98
2023-05-01T05:35:31.022Z,4.24
2023-05-01T05:37:57.851Z,4.01
2023-05-01T05:40:24.699Z,5.07
2023-05-01T05:42:51.494Z,4.37
2023-05-01T05:45:18.290Z,3.85
2023-05-01T05:47:46.431Z,4.13
2023-05-01T05:50:13.486Z,5.08
2023-05-01T05:52:40.340Z,4.61
2023-05-01T05:55:07.974Z,4.79
2023-05-01T05:57:36.043Z,3.47
2023-05-01T06:00:04.662Z,3.63
2023-05-01T06:02:31.994Z,3.86
2023-05-01T06:05:00.387Z,4.86
2023-05-01T06:07:29.697Z,3.97
2023-05-01T06:10:00.106Z,5.55
2023-05-01T06:12:27.732Z,4.56
2023-05-01T06:14:55.372Z,4.59
2023-05-01T06:17:22.916Z,4.53
2023-05-01T06:19:49.795Z,5.06
2023-05-01T06:22:17.932Z,4.21
2023-05-01T06:24:44.698Z,3.61
2023-05-01T06:27:11.520Z,3.21
2023-05-01T06:29:38.297Z,2.77
2023-05-01T06:32:05.617Z,2.79
2023-05-01T06:34:32.424Z,2.85
2023-05-01T06:36:59.227Z,2.24
2023-05-01T06:39:27.490Z,3.08
2023-05-01T06:41:54.389Z,3.54
2023-05-01T06:44:21.156Z,3.57
2023-05-01T06:46:47.935Z,4.04
2023-05-01T06:49:14.746Z,3.02
2023-05-01T06:51:41.497Z,2.68
2023-05-01T06:54:08.939Z,3.02
2023-05-01T06:56:37.148Z,3.04
2023-05-01T06:59:04.019Z,3.20
2023-05-01T07:01:32.665Z,2.76
2023-05-01T07:04:00.740Z,2.62
2023-05-01T07:06:27.751Z,3.12
2023-05-01T07:08:54.634Z,2.97
2023-05-01T07:11:21.736Z,3.92
2023-05-01T07:13:50.025Z,3.86
2023-05-01T07:16:16.746Z,2.92
2023-05-01T07:18:43.691Z,3.40
2023-05-01T07:21:10.531Z,3.24
2023-05-01T07:23:37.477Z,4.28
2023-05-01T07:26:04.958Z,3.83
2023-05-01T07:28:31.833Z,4.03
2023-05-01T07:31:00.180Z,3.90
2023-05-01T07:33:27.325Z,3.46
2023-05-01T07:35:54.120Z,3.33
2023-05-01T07:38:21.047Z,2.91
2023-05-01T07:40:47.839Z,2.19
2023-05-01T07:43:14.593Z,2.42
2023-05-01T07:45:41.603Z,3.05
2023-05-01T07:48:09.828Z,2.90
2023-05-01T07:50:36.607Z,2.25
2023-05-01T07:53:03.462Z,4.43
2023-05-01T07:55:30.265Z,3.20
2023-05-01T07:57:57.054Z,3.30
2023-05-01T08:00:24.158Z,2.51
2023-05-01T08:02:51.983Z,2.33
2023-05-01T08:05:20.356Z,1.93
2023-05-01T08:07:47.116Z,2.10
2023-05-01T08:10:14.054Z,1.98
2023-05-01T08:12:40.850Z,2.20
2023-05-01T08:15:08.534Z,2.21
2023-05-01T08:17:35.858Z,3.14
2023-05-01T08:20:03.680Z,3.14
2023-05-01T08:22:31.801Z,3.21
2023-05-01T08:24:58.539Z,2.74
2023-05-01T08:27:26.309Z,2.97
2023-05-01T08:29:54.925Z,2.61
2023-05-01T08:32:21.901Z,2.95
2023-05-01T08:34:48.780Z,2.83
2023-05-01T08:37:15.669Z,2.18
2023-05-01T08:39:43.786Z,1.97
2023-05-01T08:42:10.911Z,2.36
2023-05-01T08:44:38.738Z,2.18
2023-05-01T08:47:11.477Z,2.94
2023-05-01T08:49:40.916Z,2.38
2023-05-01T08:52:08.805Z,1.81
2023-05-01T08:54:39.277Z,1.76
2023-05-01T08:57:10.553Z,1.89
2023-05-01T08:59:38.548Z,2.73
2023-05-01T09:02:07.111Z,2.14
2023-05-01T09:04:35.506Z,2.21
2023-05-01T09:07:04.098Z,2.60
2023-05-01T09:09:31.929Z,2.85
2023-05-01T09:12:01.498Z,2.19
2023-05-01T09:14:31.688Z,2.75
2023-05-01T09:16:58.767Z,2.61
2023-05-01T09:19:26.949Z,1.81
2023-05-01T09:21:54.091Z,1.42
2023-05-01T09:24:22.834Z,1.22
2023-05-01T09:26:50.262Z,1.76
2023-05-01T09:29:37.895Z,1.64
2023-05-01T09:32:13.809Z,2.32
2023-05-01T09:34:40.589Z,1.83
2023-05-01T09:37:07.427Z,1.50
2023-05-01T09:39:34.385Z,1.86
2023-05-01T09:42:01.278Z,2.09
2023-05-01T09:44:28.045Z,2.63
2023-05-01T09:46:56.323Z,2.26
2023-05-01T09:49:45.043Z,1.92
2023-05-01T09:52:12.243Z,1.35
2023-05-01T09:54:39.088Z,1.25
2023-05-01T09:57:05.906Z,1.15
2023-05-01T09:59:32.633Z,1.16
2023-05-01T10:02:01.094Z,1.40
2023-05-01T10:04:31.345Z,1.78
2023-05-01T10:06:58.252Z,1.67
2023-05-01T10:09:29.157Z,1.76
2023-05-01T10:11:56.765Z,1.62
2023-05-01T10:14:23.881Z,1.17
2023-05-01T10:16:53.665Z,0.98
2023-05-01T10:19:22.018Z,1.25
2023-05-01T10:21:49.638Z,1.32
2023-05-01T10:24:17.361Z,2.00
2023-05-01T10:26:48.229Z,1.98
2023-05-01T10:29:16.151Z,1.74
2023-05-01T10:31:50.632Z,1.70
2023-05-01T10:34:22.742Z,1.61
2023-05-01T10:37:04.459Z,1.33
2023-05-01T10:39:37.385Z,1.34
2023-05-01T10:42:10.079Z,1.69
2023-05-01T10:44:40.865Z,1.25
2023-05-01T10:47:47.971Z,1.11
2023-05-01T10:50:19.169Z,0.83
2023-05-01T10:53:17.900Z,1.17
2023-05-01T10:55:46.688Z,0.95
2023-05-01T10:58:34.565Z,0.81
2023-05-01T11:01:31.369Z,1.07
2023-05-01T11:03:59.320Z,1.02
2023-05-01T11:06:27.115Z,1.53
2023-05-01T11:08:56.717Z,1.97
2023-05-01T11:11:46.067Z,1.28
2023-05-01T11:14:13.258Z,1.01
2023-05-01T11:16:47.039Z,0.89
2023-05-01T11:19:45.950Z,1.67
2023-05-01T11:22:13.020Z,1.20
2023-05-01T11:24:42.296Z,0.82
2023-05-01T11:27:13.022Z,1.09
2023-05-01T11:29:41.173Z,0.92
2023-05-01T11:32:08.907Z,1.04
2023-05-01T11:34:38.905Z,1.10
2023-05-01T11:37:05.923Z,1.05
2023-05-01T11:39:33.589Z,1.31
2023-05-01T11:42:09.891Z,0.96
2023-05-01T11:44:37.696Z,0.72
2023-05-01T11:47:05.213Z,0.63
2023-05-01T11:49:32.636Z,0.70
2023-05-01T11:51:59.913Z,1.16
2023-05-01T11:54:26.947Z,1.51
2023-05-01T11:57:00.561Z,0.99
2023-05-01T11:59:29.423Z,0.75
2023-05-01T12:01:56.367Z,1.12
2023-05-01T12:04:24.756Z,1.36
2023-05-01T12:06:51.738Z,1.17
2023-05-01T12:09:20.370Z,1.05
2023-05-01T12:11:52.324Z,1.35
2023-05-01T12:14:20.656Z,1.16
2023-05-01T12:16:49.111Z,1.45
2023-05-01T12:19:16.617Z,1.18
2023-05-01T12:21:43.549Z,0.98
2023-05-01T12:24:11.209Z,0.86
2023-05-01T12:26:37.970Z,0.77
2023-05-01T12:29:06.563Z,0.66
2023-05-01T12:31:33.793Z,0.61
2023-05-01T12:34:04.874Z,0.63
2023-05-01T12:36:33.429Z,0.76
2023-05-01T12:39:02.572Z,1.25
2023-05-01T12:41:34.145Z,1.02
2023-05-01T12:44:01.489Z,1.06
2023-05-01T12:46:29.946Z,1.07
2023-05-01T12:48:57.181Z,0.87
2023-05-01T12:51:26.872Z,0.81
2023-05-01T12:53:54.512Z,1.48
2023-05-01T12:56:22.679Z,1.93
2023-05-01T12:58:50.554Z,1.57
2023-05-01T13:01:24.628Z,1.54
2023-05-01T13:06:18.785Z,1.15
2023-05-01T13:08:47.289Z,1.00
2023-05-01T13:11:15.661Z,1.07
2023-05-01T13:13:43.899Z,0.84
2023-05-01T13:16:12.875Z,0.64
2023-05-01T13:18:43.757Z,0.62
2023-05-01T13:21:12.377Z,0.67
2023-05-01T13:23:39.397Z,0.65
2023-05-01T13:26:09.088Z,1.43
2023-05-01T13:28:36.598Z,1.44
2023-05-01T13:31:10.431Z,1.15
2023-05-01T13:33:39.228Z,0.94
2023-05-01T13:36:17.769Z,0.78
2023-05-01T13:38:54.067Z,0.92
2023-05-01T13:41:24.129Z,0.76
2023-05-01T13:43:52.532Z,0.64
2023-05-01T13:46:20.705Z,0.80
2023-05-01T13:48:48.988Z,0.94
2023-05-01T13:51:21.378Z,0.93
2023-05-01T13:53:48.121Z,0.73
2023-05-01T13:56:14.924Z,0.62
2023-05-01T13:58:43.163Z,0.91
2023-05-01T14:01:16.143Z,1.24
2023-05-01T14:03:43.641Z,0.85
2023-05-01T14:06:13.018Z,0.68
2023-05-01T14:08:40.205Z,0.85
2023-05-01T14:11:07.962Z,1.01
2023-05-01T14:13:36.019Z,1.36
2023-05-01T14:16:07.401Z,1.04
2023-05-01T14:18:34.194Z,1.57
2023-05-01T14:21:00.961Z,1.16
2023-05-01T14:23:28.905Z,1.26
2023-05-01T14:25:55.696Z,0.91
2023-05-01T14:28:22.489Z,0.90
2023-05-01T14:30:49.241Z,1.18
2023-05-01T14:33:17.639Z,1.17
2023-05-01T14:35:48.359Z,0.90
2023-05-01T14:38:16.536Z,0.93
2023-05-01T14:40:44.404Z,0.91
2023-05-01T14:43:14.197Z,0.86
2023-05-01T14:45:41.778Z,1.10
2023-05-01T14:48:10.388Z,1.09
2023-05-01T14:50:38.791Z,1.12
2023-05-01T14:53:05.598Z,0.76
2023-05-01T14:55:32.471Z,0.84
2023-05-01T14:57:59.277Z,0.80
2023-05-01T15:00:26.019Z,0.68
2023-05-01T15:02:52.908Z,0.60
2023-05-01T15:05:19.695Z,0.55
2023-05-01T15:07:47.822Z,1.12
2023-05-01T15:10:14.581Z,0.83
2023-05-01T15:12:41.398Z,0.83
2023-05-01T15:15:09.467Z,0.81
2023-05-01T15:17:36.316Z,0.94
2023-05-01T15:20:03.415Z,1.32
2023-05-01T15:22:30.268Z,1.06
2023-05-01T15:24:58.991Z,1.09
2023-05-01T15:27:26.041Z,1.34
2023-05-01T15:29:52.787Z,1.62
2023-05-01T15:32:19.669Z,1.36
2023-05-01T15:34:46.550Z,1.50
2023-05-01T15:37:13.388Z,1.71
2023-05-01T15:39:40.242Z,2.08
2023-05-01T15:42:08.467Z,1.96
2023-05-01T15:44:35.217Z,1.40
2023-05-01T15:47:02.034Z,1.28
2023-05-01T15:49:28.901Z,2.15
2023-05-01T15:51:55.664Z,1.66
2023-05-01T15:54:22.428Z,1.97
2023-05-01T15:56:49.291Z,1.44
2023-05-01T15:59:17.538Z,1.38
2023-05-01T16:01:44.641Z,1.30
2023-05-01T16:04:11.624Z,1.42
2023-05-01T16:06:40.275Z,1.33
2023-05-01T16:09:07.162Z,1.39
2023-05-01T16:11:33.951Z,1.10
2023-05-01T16:14:00.924Z,1.61
2023-05-01T16:16:29.341Z,1.28
2023-05-01T16:18:57.546Z,1.94
2023-05-01T16:21:25.313Z,1.56
2023-05-01T16:23:54.654Z,1.15
2023-05-01T16:26:23.791Z,1.12
2023-05-01T16:28:51.676Z,1.12
2023-05-01T16:31:27.194Z,1.05
2023-05-01T16:33:56.859Z,1.37
2023-05-01T16:36:23.592Z,1.86
2023-05-01T16:38:50.395Z,1.45
2023-05-01T16:41:17.835Z,2.17
2023-05-01T16:43:45.099Z,1.53
2023-05-01T16:46:15.018Z,1.99
2023-05-01T16:48:42.007Z,1.48
2023-05-01T16:51:10.672Z,2.00
2023-05-01T16:53:37.593Z,1.53
2023-05-01T16:56:04.939Z,1.55
2023-05-01T16:58:31.686Z,1.54
2023-05-01T17:00:58.475Z,1.68
2023-05-01T17:03:25.207Z,1.48
2023-05-01T17:05:51.945Z,1.26
2023-05-01T17:08:20.065Z,1.25
2023-05-01T17:10:46.841Z,1.26
2023-05-01T17:13:13.619Z,1.33
2023-05-01T17:15:40.568Z,1.28
2023-05-01T17:18:08.083Z,2.07
2023-05-01T17:20:35.249Z,1.61
2023-05-01T17:23:02.077Z,1.82
2023-05-01T17:25:30.237Z,2.42
2023-05-01T17:27:57.053Z,2.57
2023-05-01T17:30:23.906Z,1.93
2023-05-01T17:32:50.948Z,1.72
2023-05-01T17:35:17.866Z,1.44
2023-05-01T17:37:44.605Z,1.25
2023-05-01T17:40:11.923Z,1.23
2023-05-01T17:42:40.187Z,1.43
2023-05-01T17:45:08.076Z,1.45
2023-05-01T17:47:34.923Z,1.64
2023-05-01T17:50:02.775Z,1.84
2023-05-01T17:52:29.950Z,1.58
2023-05-01T17:54:56.699Z,1.58
2023-05-01T17:57:23.419Z,1.53
2023-05-01T17:59:51.596Z,1.68
2023-05-01T18:02:18.440Z,1.55
2023-05-01T18:04:45.291Z,1.94
2023-05-01T18:07:12.135Z,1.78
2023-05-01T18:09:38.881Z,2.00
2023-05-01T18:12:05.861Z,2.18
2023-05-01T18:14:32.667Z,1.99
2023-05-01T18:17:01.222Z,1.77
2023-05-01T18:19:28.080Z,2.26
2023-05-01T18:21:54.788Z,2.21
2023-05-01T18:24:21.586Z,1.79
2023-05-01T18:26:48.429Z,1.76
2023-05-01T18:29:15.199Z,1.55
2023-05-01T18:31:42.040Z,1.96
2023-05-01T18:34:10.252Z,1.79
2023-05-01T18:36:37.048Z,2.25
2023-05-01T18:39:03.943Z,2.31
2023-05-01T18:41:30.718Z,2.18
2023-05-01T18:43:58.145Z,1.97
2023-05-01T18:46:25.052Z,1.73
2023-05-01T18:48:52.971Z,1.72
2023-05-01T18:51:22.861Z,1.73
2023-05-01T18:53:53.757Z,1.54
2023-05-01T18:56:20.674Z,1.42
2023-05-01T18:58:47.499Z,1.44
2023-05-01T19:01:14.257Z,1.58
2023-05-01T19:03:41.110Z,1.57
2023-05-01T19:06:07.968Z,2.01
2023-05-01T19:08:36.302Z,2.03
2023-05-01T19:11:03.801Z,2.05
2023-05-01T19:13:30.627Z,2.93
2023-05-01T19:15:57.486Z,2.32
2023-05-01T19:18:24.500Z,1.88
2023-05-01T19:20:51.758Z,2.05
2023-05-01T19:23:18.592Z,2.39
2023-05-01T19:25:46.719Z,2.07
2023-05-01T19:28:13.434Z,1.98
2023-05-01T19:30:40.265Z,2.36
2023-05-01T19:33:07.720Z,2.69
2023-05-01T19:35:34.969Z,2.57
2023-05-01T19:38:02.283Z,2.13
2023-05-01T19:40:29.542Z,2.62
2023-05-01T19:42:57.684Z,3.54
2023-05-01T19:45:24.579Z,3.23
2023-05-01T19:47:51.388Z,3.17
2023-05-01T19:50:18.273Z,3.38
2023-05-01T19:52:45.129Z,3.01
2023-05-01T19:55:11.915Z,2.84
2023-05-01T19:57:38.744Z,4.39
2023-05-01T20:00:08.823Z,4.95
2023-05-01T20:02:35.775Z,4.31
2023-05-01T20:05:02.623Z,3.52
2023-05-01T20:07:29.688Z,3.61
2023-05-01T20:09:56.848Z,4.02
2023-05-01T20:12:24.074Z,4.19
2023-05-01T20:14:51.040Z,3.97
2023-05-01T20:17:19.454Z,3.56
2023-05-01T20:19:46.225Z,3.25
2023-05-01T20:22:12.957Z,3.31
2023-05-01T20:24:39.732Z,3.08
2023-05-01T20:27:06.558Z,2.72
2023-05-01T20:29:33.307Z,3.27
2023-05-01T20:32:00.155Z,2.75
2023-05-01T20:34:28.307Z,2.77
2023-05-01T20:36:55.140Z,2.91
2023-05-01T20:39:21.912Z,2.82
2023-05-01T20:41:48.655Z,2.55
2023-05-01T20:44:15.580Z,2.67
2023-05-01T20:46:42.747Z,2.66
2023-05-01T20:49:12.081Z,2.72
2023-05-01T20:51:41.264Z,2.67
2023-05-01T20:54:08.062Z,2.83
2023-05-01T20:56:34.821Z,2.90
2023-05-01T20:59:03.164Z,3.11
2023-05-01T21:01:30.835Z,2.71
2023-05-01T21:03:58.278Z,2.59
2023-05-01T21:06:25.238Z,2.48
2023-05-01T21:08:53.415Z,2.93
2023-05-01T21:11:20.175Z,2.63
2023-05-01T21:13:46.893Z,2.48
2023-05-01T21:16:14.496Z,3.68
2023-05-01T21:18:41.525Z,4.64
2023-05-01T21:21:08.744Z,3.54
2023-05-01T21:23:35.894Z,3.52
2023-05-01T21:26:04.207Z,3.01
2023-05-01T21:28:31.050Z,2.52
2023-05-01T21:30:57.844Z,2.55
2023-05-01T21:33:24.680Z,2.41
2023-05-01T21:35:51.491Z,2.38
2023-05-01T21:38:18.246Z,3.19
2023-05-01T21:40:45.011Z,2.62
2023-05-01T21:43:13.197Z,2.54
2023-05-01T21:45:43.680Z,2.30
2023-05-01T21:48:14.253Z,2.23
2023-05-01T21:50:41.190Z,2.22
2023-05-01T21:53:07.949Z,3.03
2023-05-01T21:55:34.811Z,3.14
2023-05-01T21:58:02.096Z,2.98
2023-05-01T22:00:30.580Z,3.03
2023-05-01T22:02:57.734Z,2.57
2023-05-01T22:05:24.704Z,2.48
2023-05-01T22:07:51.750Z,3.42
2023-05-01T22:10:19.197Z,4.13
2023-05-01T22:12:46.664Z,3.81
2023-05-01T22:15:14.270Z,3.83
2023-05-01T22:17:42.816Z,3.88
2023-05-01T22:20:10.307Z,4.59
2023-05-01T22:22:38.954Z,3.57
2023-05-01T22:25:06.935Z,3.54
2023-05-01T22:27:33.985Z,3.31
2023-05-01T22:30:01.082Z,3.80
2023-05-01T22:32:28.248Z,3.17
2023-05-01T22:34:56.629Z,2.73
2023-05-01T22:37:23.429Z,3.43
2023-05-01T22:39:50.267Z,3.30
2023-05-01T22:42:17.019Z,3.22
2023-05-01T22:44:43.754Z,3.93
2023-05-01T22:47:10.564Z,3.18
2023-05-01T22:49:37.305Z,2.89
2023-05-01T22:52:05.577Z,2.35
2023-05-01T22:54:32.328Z,2.34
2023-05-01T22:56:59.064Z,2.05
2023-05-01T22:59:25.930Z,2.24
2023-05-01T23:01:52.884Z,2.48
2023-05-01T23:04:19.981Z,2.01
2023-05-01T23:06:46.904Z,2.39
2023-05-01T23:09:15.104Z,2.91
2023-05-01T23:11:41.928Z,2.49
2023-05-01T23:14:09.335Z,2.19
2023-05-01T23:16:40.798Z,1.89
2023-05-01T23:19:18.655Z,2.46
2023-05-01T23:21:45.407Z,2.09
2023-05-01T23:24:13.181Z,3.31
2023-05-01T23:26:41.436Z,3.10
2023-05-01T23:29:08.239Z,2.78
2023-05-01T23:31:36.023Z,3.60
2023-05-01T23:34:02.983Z,3.60
2023-05-01T23:36:29.749Z,3.82
2023-05-01T23:38:56.484Z,4.80
2023-05-01T23:41:23.256Z,6.10
2023-05-01T23:43:51.642Z,5.65
2023-05-01T23:46:18.560Z,5.05
2023-05-01T23:48:45.386Z,5.50
2023-05-01T23:51:12.269Z,4.90
2023-05-01T23:53:39.072Z,5.61
2023-05-01T23:56:06.382Z,5.37
2023-05-01T23:58:33.624Z,5.49
